createdAt,value
2022-08-04T00:01:28.470Z,20.60
2022-08-04T00:04:02.975Z,20.60
2022-08-04T00:06:38.935Z,20.50
2022-08-04T00:09:17.496Z,20.40
2022-08-04T00:11:48.390Z,20.40
2022-08-04T00:14:16.284Z,20.40
2022-08-04T00:16:45.616Z,20.30
2022-08-04T00:22:01.035Z,20.30
2022-08-04T00:24:30.576Z,20.30
2022-08-04T00:26:57.587Z,20.30
2022-08-04T00:29:25.126Z,20.30
2022-08-04T00:31:54.872Z,20.30
2022-08-04T00:34:28.812Z,20.20
2022-08-04T00:36:56.754Z,20.20
2022-08-04T00:39:24.285Z,20.20
2022-08-04T00:42:06.104Z,20.10
2022-08-04T00:45:11.217Z,20.10
2022-08-04T00:48:31.221Z,20.10
2022-08-04T00:51:24.838Z,20.10
2022-08-04T00:54:00.142Z,20.10
2022-08-04T00:56:38.503Z,20.00
2022-08-04T00:59:33.063Z,20.00
2022-08-04T01:01:59.818Z,20.00
2022-08-04T01:05:02.789Z,20.00
2022-08-04T01:07:52.490Z,20.00
2022-08-04T01:10:33.885Z,20.00
2022-08-04T01:13:15.136Z,19.90
2022-08-04T01:16:01.154Z,19.90
2022-08-04T01:19:11.969Z,19.90
2022-08-04T01:22:19.606Z,19.80
2022-08-04T01:25:04.620Z,19.70
2022-08-04T01:27:54.922Z,19.70
2022-08-04T01:30:26.285Z,19.60
2022-08-04T01:33:00.776Z,19.60
2022-08-04T01:35:56.513Z,19.50
2022-08-04T01:40:59.858Z,19.40
2022-08-04T01:43:29.730Z,19.40
2022-08-04T01:46:01.897Z,19.30
2022-08-04T01:48:29.401Z,19.30
2022-08-04T01:51:09.197Z,19.30
2022-08-04T01:53:42.020Z,19.30
2022-08-04T01:56:10.974Z,19.20
2022-08-04T01:58:39.805Z,19.20
2022-08-04T02:01:08.874Z,19.10
2022-08-04T02:04:21.505Z,19.10
2022-08-04T02:06:46.435Z,19.10
2022-08-04T02:09:54.730Z,19.20
2022-08-04T02:12:27.328Z,19.20
2022-08-04T02:14:57.135Z,19.20
2022-08-04T02:17:37.590Z,19.20
2022-08-04T02:20:43.706Z,19.20
2022-08-04T02:23:15.591Z,19.20
2022-08-04T02:25:55.937Z,19.20
2022-08-04T02:28:46.373Z,19.20
2022-08-04T02:31:38.084Z,19.20
2022-08-04T02:34:22.181Z,19.10
2022-08-04T02:36:50.702Z,19.00
2022-08-04T02:39:20.929Z,19.00
2022-08-04T02:41:49.933Z,19.00
2022-08-04T02:44:28.201Z,19.00
2022-08-04T02:46:55.680Z,18.90
2022-08-04T02:49:23.349Z,18.90
2022-08-04T02:51:55.074Z,18.80
2022-08-04T02:54:41.415Z,18.80
2022-08-04T02:57:15.299Z,18.80
2022-08-04T03:00:13.475Z,18.80
2022-08-04T03:03:01.049Z,18.80
2022-08-04T03:05:57.771Z,18.70
2022-08-04T03:08:56.831Z,18.70
2022-08-04T03:12:05.669Z,18.70
2022-08-04T03:14:59.119Z,18.60
2022-08-04T03:18:03.307Z,18.60
2022-08-04T03:20:52.045Z,18.60
2022-08-04T03:23:35.043Z,18.60
2022-08-04T03:26:04.871Z,18.70
2022-08-04T03:29:08.812Z,18.70
2022-08-04T03:32:18.634Z,18.60
2022-08-04T03:35:22.665Z,18.60
2022-08-04T03:38:17.984Z,18.50
2022-08-04T03:41:15.035Z,18.50
2022-08-04T03:43:58.549Z,18.50
2022-08-04T03:47:07.689Z,18.40
2022-08-04T03:49:53.192Z,18.40
2022-08-04T03:52:57.453Z,18.40
2022-08-04T03:55:30.541Z,18.40
2022-08-04T03:58:38.761Z,18.50
2022-08-04T04:01:23.021Z,18.50
2022-08-04T04:04:08.850Z,18.60
2022-08-04T04:06:57.060Z,18.60
2022-08-04T04:10:05.864Z,18.60
2022-08-04T04:12:45.139Z,18.60
2022-08-04T04:15:42.534Z,18.60
2022-08-04T04:18:24.480Z,18.60
2022-08-04T04:21:11.855Z,18.60
2022-08-04T04:23:57.635Z,18.60
2022-08-04T04:26:36.109Z,18.60
2022-08-04T04:29:19.428Z,18.70
2022-08-04T04:31:46.157Z,18.70
2022-08-04T04:34:31.398Z,18.70
2022-08-04T04:37:20.371Z,18.70
2022-08-04T04:40:05.336Z,18.70
2022-08-04T04:43:07.819Z,18.80
2022-08-04T04:45:37.607Z,18.80
2022-08-04T04:48:14.918Z,18.80
2022-08-04T04:50:47.263Z,18.90
2022-08-04T04:54:00.113Z,18.90
2022-08-04T04:56:47.132Z,19.00
2022-08-04T04:59:18.841Z,19.00
2022-08-04T05:01:51.515Z,19.10
2022-08-04T05:04:36.005Z,19.20
2022-08-04T05:07:21.426Z,19.30
2022-08-04T05:10:02.992Z,19.30
2022-08-04T05:14:37.707Z,19.40
2022-08-04T05:15:56.273Z,19.50
2022-08-04T05:18:27.914Z,19.50
2022-08-04T05:21:15.590Z,19.60
2022-08-04T05:23:47.574Z,19.70
2022-08-04T05:26:18.855Z,19.80
2022-08-04T05:28:54.894Z,19.90
2022-08-04T05:31:33.269Z,20.00
2022-08-04T05:34:11.220Z,20.10
2022-08-04T05:36:49.753Z,20.10
2022-08-04T05:39:21.736Z,20.10
2022-08-04T05:41:55.196Z,20.30
2022-08-04T05:44:28.046Z,20.30
2022-08-04T05:46:59.379Z,20.40
2022-08-04T05:49:29.625Z,20.50
2022-08-04T05:52:00.827Z,20.50
2022-08-04T05:54:30.921Z,20.60
2022-08-04T05:56:58.197Z,20.70
2022-08-04T05:59:26.780Z,20.80
2022-08-04T06:01:57.681Z,20.90
2022-08-04T06:04:45.981Z,21.00
2022-08-04T06:07:14.296Z,21.10
2022-08-04T06:09:42.070Z,21.10
2022-08-04T06:12:19.450Z,21.30
2022-08-04T06:14:49.807Z,21.40
2022-08-04T06:18:35.377Z,21.50
2022-08-04T06:20:19.353Z,21.60
2022-08-04T06:22:57.627Z,21.60
2022-08-04T06:25:29.630Z,21.70
2022-08-04T06:27:58.018Z,21.80
2022-08-04T06:30:27.653Z,21.90
2022-08-04T06:33:03.833Z,22.00
2022-08-04T06:35:33.240Z,22.10
2022-08-04T06:38:01.942Z,22.10
2022-08-04T06:40:33.250Z,22.30
2022-08-04T06:43:06.724Z,22.40
2022-08-04T06:45:39.952Z,22.50
2022-08-04T06:48:08.086Z,22.70
2022-08-04T06:51:30.691Z,22.90
2022-08-04T06:53:24.266Z,23.10
2022-08-04T06:55:51.922Z,23.20
2022-08-04T06:58:21.044Z,23.40
2022-08-04T07:00:48.613Z,23.60
2022-08-04T07:03:17.972Z,23.70
2022-08-04T07:05:48.146Z,23.90
2022-08-04T07:08:15.447Z,24.20
2022-08-04T07:10:42.583Z,26.00
2022-08-04T07:13:10.532Z,26.70
2022-08-04T07:15:41.378Z,28.30
2022-08-04T07:18:08.254Z,29.90
2022-08-04T07:20:36.894Z,31.40
2022-08-04T07:23:07.876Z,32.40
2022-08-04T07:25:59.532Z,33.40
2022-08-04T07:28:27.395Z,34.10
2022-08-04T07:30:56.925Z,34.50
2022-08-04T07:33:24.722Z,35.00
2022-08-04T07:36:09.679Z,35.40
2022-08-04T07:38:48.402Z,35.90
2022-08-04T07:41:39.036Z,36.60
2022-08-04T07:44:07.838Z,37.10
2022-08-04T07:46:35.837Z,37.00
2022-08-04T07:49:02.948Z,37.20
2022-08-04T07:53:58.677Z,37.80
2022-08-04T07:56:26.901Z,38.10
2022-08-04T07:58:54.273Z,38.20
2022-08-04T08:01:21.675Z,38.70
2022-08-04T08:03:49.671Z,38.70
2022-08-04T08:06:32.989Z,38.70
2022-08-04T08:09:13.461Z,39.10
2022-08-04T08:12:37.423Z,39.10
2022-08-04T08:14:36.280Z,39.30
2022-08-04T08:17:04.655Z,39.60
2022-08-04T08:19:32.884Z,39.80
2022-08-04T08:22:01.832Z,40.00
2022-08-04T08:26:58.788Z,40.20
2022-08-04T08:29:26.717Z,40.40
2022-08-04T08:31:57.376Z,40.50
2022-08-04T08:34:29.675Z,40.60
2022-08-04T08:37:02.497Z,40.60
2022-08-04T08:39:52.953Z,40.60
2022-08-04T08:42:25.576Z,40.70
2022-08-04T08:45:29.607Z,40.90
2022-08-04T08:48:15.100Z,41.10
2022-08-04T08:51:08.154Z,41.60
2022-08-04T08:54:13.296Z,41.80
2022-08-04T08:57:13.719Z,41.80
2022-08-04T09:00:10.552Z,41.70
2022-08-04T09:02:46.142Z,41.90
2022-08-04T09:05:34.314Z,42.10
2022-08-04T09:08:27.931Z,42.30
2022-08-04T09:14:00.942Z,42.50
2022-08-04T09:16:49.186Z,43.70
2022-08-04T09:19:38.557Z,43.60
2022-08-04T09:22:23.983Z,43.40
2022-08-04T09:25:12.362Z,43.40
2022-08-04T09:27:48.052Z,43.30
2022-08-04T09:30:19.849Z,43.20
2022-08-04T09:33:22.521Z,43.40
2022-08-04T09:36:25.994Z,43.50
2022-08-04T09:39:27.669Z,43.50
2022-08-04T09:42:35.996Z,43.60
2022-08-04T09:45:36.620Z,43.90
2022-08-04T09:48:19.773Z,43.70
2022-08-04T09:50:55.047Z,43.60
2022-08-04T09:53:44.761Z,43.50
2022-08-04T09:56:30.722Z,43.30
2022-08-04T09:59:17.061Z,43.50
2022-08-04T10:01:44.970Z,43.60
2022-08-04T10:04:19.830Z,43.80
2022-08-04T10:07:43.733Z,44.00
2022-08-04T10:10:38.887Z,43.90
2022-08-04T10:13:33.010Z,44.00
2022-08-04T10:16:23.275Z,43.90
2022-08-04T10:19:23.983Z,43.70
2022-08-04T10:22:28.172Z,43.20
2022-08-04T10:25:01.856Z,42.90
2022-08-04T10:27:34.674Z,42.70
2022-08-04T10:30:13.134Z,42.40
2022-08-04T10:33:21.045Z,42.20
2022-08-04T10:36:10.574Z,42.00
2022-08-04T10:38:45.960Z,41.10
2022-08-04T10:41:16.972Z,40.20
2022-08-04T10:54:26.136Z,37.90
2022-08-04T10:57:01.358Z,36.50
2022-08-04T10:59:53.074Z,36.10
2022-08-04T11:02:33.808Z,35.90
2022-08-04T11:05:21.598Z,35.60
2022-08-04T11:07:52.382Z,35.30
2022-08-04T11:10:22.557Z,35.10
2022-08-04T11:12:57.965Z,35.00
2022-08-04T11:15:39.533Z,34.80
2022-08-04T11:18:16.471Z,34.80
2022-08-04T11:20:52.339Z,34.70
2022-08-04T11:23:26.204Z,34.60
2022-08-04T11:26:04.854Z,34.50
2022-08-04T11:28:43.820Z,34.40
2022-08-04T11:31:19.453Z,34.50
2022-08-04T11:34:10.678Z,34.30
2022-08-04T11:36:52.282Z,34.30
2022-08-04T11:39:26.304Z,34.20
2022-08-04T11:42:27.075Z,34.20
2022-08-04T11:45:13.417Z,34.10
2022-08-04T11:48:01.094Z,34.00
2022-08-04T11:50:43.300Z,34.00
2022-08-04T11:53:17.100Z,34.00
2022-08-04T11:56:07.602Z,34.00
2022-08-04T11:58:33.228Z,34.00
2022-08-04T12:01:31.634Z,33.80
2022-08-04T12:04:21.981Z,33.70
2022-08-04T12:07:15.220Z,33.60
2022-08-04T12:10:03.117Z,33.50
2022-08-04T12:12:37.716Z,33.40
2022-08-04T12:15:16.760Z,33.30
2022-08-04T12:17:52.724Z,33.30
2022-08-04T12:20:34.359Z,33.30
2022-08-04T12:23:15.841Z,33.30
2022-08-04T12:25:47.727Z,33.20
2022-08-04T12:28:41.390Z,33.00
2022-08-04T12:31:34.273Z,33.00
2022-08-04T12:34:09.103Z,33.10
2022-08-04T12:36:40.072Z,33.00
2022-08-04T12:39:19.569Z,32.90
2022-08-04T12:42:17.070Z,32.90
2022-08-04T12:44:50.924Z,32.80
2022-08-04T12:47:26.688Z,32.80
2022-08-04T12:50:05.841Z,32.70
2022-08-04T12:55:31.849Z,32.60
2022-08-04T12:58:01.614Z,32.60
2022-08-04T13:00:38.179Z,32.50
2022-08-04T13:03:14.645Z,32.40
2022-08-04T13:05:42.877Z,32.40
2022-08-04T13:08:12.462Z,32.20
2022-08-04T13:10:46.419Z,32.20
2022-08-04T13:13:20.897Z,32.30
2022-08-04T13:16:03.772Z,32.40
2022-08-04T13:18:34.650Z,32.40
2022-08-04T13:21:22.888Z,32.30
2022-08-04T13:24:21.022Z,32.30
2022-08-04T13:27:06.786Z,32.40
2022-08-04T13:29:59.494Z,32.40
2022-08-04T13:32:30.628Z,32.40
2022-08-04T13:35:00.787Z,32.30
2022-08-04T13:37:35.149Z,32.30
2022-08-04T13:40:07.731Z,32.30
2022-08-04T13:42:36.379Z,32.30
2022-08-04T13:45:06.217Z,32.30
2022-08-04T13:47:37.231Z,32.20
2022-08-04T13:50:30.152Z,32.20
2022-08-04T13:53:00.258Z,32.20
2022-08-04T13:55:29.017Z,32.10
2022-08-04T13:58:27.955Z,32.00
2022-08-04T14:01:00.940Z,31.90
2022-08-04T14:03:53.857Z,32.00
2022-08-04T14:06:27.181Z,32.00
2022-08-04T14:08:55.263Z,31.90
2022-08-04T14:12:10.548Z,32.00
2022-08-04T14:14:28.388Z,32.00
2022-08-04T14:17:20.387Z,32.00
2022-08-04T14:19:48.702Z,31.90
2022-08-04T14:22:30.408Z,31.90
2022-08-04T14:24:57.395Z,31.80
2022-08-04T14:27:25.144Z,31.80
2022-08-04T14:29:52.248Z,31.70
2022-08-04T14:32:21.737Z,31.60
2022-08-04T14:34:51.135Z,31.60
2022-08-04T14:37:22.954Z,31.60
2022-08-04T14:40:18.713Z,31.60
2022-08-04T14:42:43.394Z,31.60
2022-08-04T14:45:10.605Z,31.60
2022-08-04T14:47:52.312Z,31.60
2022-08-04T14:50:20.798Z,31.60
2022-08-04T14:52:47.560Z,31.70
2022-08-04T14:55:23.903Z,31.60
2022-08-04T14:58:34.633Z,31.50
2022-08-04T15:00:39.394Z,31.30
2022-08-04T15:03:08.749Z,31.30
2022-08-04T15:06:01.611Z,31.20
2022-08-04T15:08:24.819Z,31.10
2022-08-04T15:11:03.323Z,31.00
2022-08-04T15:13:32.527Z,31.00
2022-08-04T15:16:00.956Z,30.90
2022-08-04T15:18:35.718Z,30.90
2022-08-04T15:21:03.584Z,30.80
2022-08-04T15:23:31.789Z,30.80
2022-08-04T15:26:10.501Z,30.70
2022-08-04T15:32:01.677Z,30.70
2022-08-04T15:33:56.682Z,30.60
2022-08-04T15:36:34.103Z,30.50
2022-08-04T15:39:09.894Z,30.50
2022-08-04T15:42:00.850Z,30.40
2022-08-04T15:44:53.547Z,30.40
2022-08-04T15:47:25.949Z,30.40
2022-08-04T15:50:10.819Z,30.40
2022-08-04T15:53:10.857Z,30.30
2022-08-04T15:55:43.051Z,30.20
2022-08-04T15:58:11.795Z,30.20
2022-08-04T16:00:56.497Z,30.20
2022-08-04T16:03:55.382Z,30.20
2022-08-04T16:06:22.246Z,30.20
2022-08-04T16:11:31.040Z,30.20
2022-08-04T16:14:01.804Z,29.80
2022-08-04T16:16:40.970Z,30.10
2022-08-04T16:19:10.326Z,30.10
2022-08-04T16:21:49.297Z,30.20
2022-08-04T16:24:21.347Z,30.20
2022-08-04T16:26:57.767Z,30.20
2022-08-04T16:29:26.851Z,30.20
2022-08-04T16:32:06.000Z,30.10
2022-08-04T16:34:53.843Z,30.00
2022-08-04T16:39:50.189Z,29.90
2022-08-04T16:42:27.735Z,29.90
2022-08-04T16:45:07.254Z,30.00
2022-08-04T16:47:49.230Z,30.10
2022-08-04T16:52:48.307Z,29.90
2022-08-04T16:55:19.480Z,29.90
2022-08-04T16:57:54.481Z,29.80
2022-08-04T17:00:35.672Z,29.70
2022-08-04T17:03:04.395Z,29.70
2022-08-04T17:05:37.994Z,29.60
2022-08-04T17:10:57.259Z,29.60
2022-08-04T17:14:02.636Z,29.60
2022-08-04T17:16:23.583Z,29.50
2022-08-04T17:18:53.531Z,29.40
2022-08-04T17:21:24.545Z,29.40
2022-08-04T17:24:15.412Z,29.30
2022-08-04T17:26:53.957Z,29.20
2022-08-04T17:29:22.864Z,29.20
2022-08-04T17:32:14.580Z,29.10
2022-08-04T17:34:41.605Z,29.00
2022-08-04T17:37:38.775Z,28.90
2022-08-04T17:40:13.099Z,28.80
2022-08-04T17:42:41.393Z,28.70
2022-08-04T17:45:49.244Z,28.70
2022-08-04T17:48:09.461Z,28.80
2022-08-04T17:50:36.713Z,28.70
2022-08-04T17:53:12.965Z,28.60
2022-08-04T17:55:42.641Z,28.50
2022-08-04T17:58:20.789Z,28.40
2022-08-04T18:01:25.293Z,28.30
2022-08-04T18:03:53.712Z,28.30
2022-08-04T18:06:23.243Z,28.20
2022-08-04T18:08:59.378Z,28.10
2022-08-04T18:11:52.422Z,28.10
2022-08-04T18:14:19.170Z,27.90
2022-08-04T18:16:56.211Z,27.90
2022-08-04T18:19:23.749Z,27.80
2022-08-04T18:22:00.194Z,27.70
2022-08-04T18:24:35.874Z,27.60
2022-08-04T18:43:02.414Z,26.90
2022-08-04T18:45:33.853Z,26.90
2022-08-04T18:51:01.773Z,26.60
2022-08-04T18:55:56.518Z,26.50
2022-08-04T18:58:27.167Z,26.40
2022-08-04T19:00:55.872Z,26.30
2022-08-04T19:03:23.531Z,26.30
2022-08-04T19:05:51.815Z,26.20
2022-08-04T19:08:33.148Z,26.10
2022-08-04T19:13:57.936Z,26.00
2022-08-04T19:16:28.511Z,25.90
2022-08-04T19:18:56.511Z,25.90
2022-08-04T19:22:00.767Z,25.90
2022-08-04T19:24:32.666Z,25.80
2022-08-04T19:26:59.311Z,25.80
2022-08-04T19:29:37.667Z,25.80
2022-08-04T19:32:14.007Z,25.70
2022-08-04T19:34:42.646Z,25.70
2022-08-04T19:37:57.972Z,25.60
2022-08-04T19:40:08.177Z,25.60
2022-08-04T19:42:36.590Z,25.60
2022-08-04T19:45:04.437Z,25.60
2022-08-04T19:48:17.638Z,25.60
2022-08-04T19:50:18.223Z,25.70
2022-08-04T19:52:45.850Z,25.70
2022-08-04T19:55:22.613Z,25.60
2022-08-04T19:57:50.882Z,25.70
2022-08-04T20:00:33.410Z,25.70
2022-08-04T20:03:02.853Z,25.60
2022-08-04T20:05:52.711Z,25.60
2022-08-04T20:08:17.546Z,25.60
2022-08-04T20:10:47.002Z,25.50
2022-08-04T20:13:19.702Z,25.50
2022-08-04T20:15:55.281Z,25.50
2022-08-04T20:18:35.770Z,25.40
2022-08-04T20:21:19.959Z,25.30
2022-08-04T20:23:52.722Z,25.20
2022-08-04T20:26:19.771Z,25.10
2022-08-04T20:28:51.741Z,25.00
2022-08-04T20:31:19.046Z,25.00
2022-08-04T20:33:49.344Z,24.90
2022-08-04T20:36:21.927Z,24.80
2022-08-04T20:38:52.718Z,24.80
2022-08-04T20:41:22.842Z,24.70
2022-08-04T20:43:50.277Z,24.60
2022-08-04T20:46:25.565Z,24.60
2022-08-04T20:48:56.931Z,24.60
2022-08-04T20:54:16.971Z,24.40
2022-08-04T20:56:51.218Z,24.40
2022-08-04T20:59:18.864Z,24.30
2022-08-04T21:01:49.600Z,24.30
2022-08-04T21:04:32.687Z,24.30
2022-08-04T21:07:01.424Z,24.20
2022-08-04T21:09:38.441Z,24.10
2022-08-04T21:15:01.181Z,24.10
2022-08-04T21:17:58.278Z,24.00
2022-08-04T21:20:27.401Z,24.00
2022-08-04T21:22:54.712Z,24.00
2022-08-04T21:25:22.302Z,23.90
2022-08-04T21:27:49.825Z,23.90
2022-08-04T21:30:25.145Z,23.90
2022-08-04T21:32:55.275Z,23.80
2022-08-04T21:35:36.678Z,23.70
2022-08-04T21:38:04.255Z,23.70
2022-08-04T21:40:54.482Z,23.80
2022-08-04T21:43:27.474Z,23.80
2022-08-04T21:45:56.840Z,23.70
2022-08-04T21:48:30.972Z,23.70
2022-08-04T21:50:57.763Z,23.60
2022-08-04T21:53:27.691Z,23.60
2022-08-04T21:56:04.808Z,23.60
2022-08-04T21:58:34.534Z,23.50
2022-08-04T22:01:05.801Z,23.50
2022-08-04T22:03:52.315Z,23.50
2022-08-04T22:06:21.221Z,23.40
2022-08-04T22:08:56.342Z,23.40
2022-08-04T22:11:43.809Z,23.30
2022-08-04T22:14:11.934Z,23.30
2022-08-04T22:16:40.002Z,23.30
2022-08-04T22:19:08.918Z,23.20
2022-08-04T22:21:39.092Z,23.30
2022-08-04T22:24:13.915Z,23.20
2022-08-04T22:26:41.332Z,23.20
2022-08-04T22:29:14.499Z,23.20
2022-08-04T22:31:56.011Z,23.20
2022-08-04T22:34:24.918Z,23.10
2022-08-04T22:36:53.354Z,23.10
2022-08-04T22:39:23.634Z,23.10
2022-08-04T22:42:03.758Z,23.00
2022-08-04T22:44:33.109Z,23.00
2022-08-04T22:47:00.881Z,23.00
2022-08-04T22:49:31.308Z,22.90
2022-08-04T22:51:58.952Z,22.90
2022-08-04T22:54:29.660Z,22.90
2022-08-04T22:56:57.259Z,22.90
2022-08-04T22:59:24.396Z,22.90
2022-08-04T23:02:00.311Z,22.90
2022-08-04T23:04:30.033Z,22.90
2022-08-04T23:06:57.287Z,22.90
2022-08-04T23:09:49.457Z,22.90
2022-08-04T23:12:27.513Z,22.80
2022-08-04T23:14:56.395Z,22.80
2022-08-04T23:17:24.692Z,22.70
2022-08-04T23:19:57.689Z,22.70
2022-08-04T23:22:41.454Z,22.90
2022-08-04T23:25:16.529Z,22.70
2022-08-04T23:27:51.707Z,22.70
2022-08-04T23:30:29.913Z,22.60
2022-08-04T23:32:58.081Z,22.60
2022-08-04T23:35:25.031Z,22.60
2022-08-04T23:37:57.213Z,22.60
2022-08-04T23:40:32.482Z,22.60
2022-08-04T23:43:00.746Z,22.50
2022-08-04T23:46:04.214Z,22.50
2022-08-04T23:48:19.229Z,22.50
2022-08-04T23:50:48.054Z,22.50
2022-08-04T23:53:18.561Z,22.50
2022-08-04T23:55:49.941Z,22.50
2022-08-04T23:58:19.003Z,22.40
